Time;durP1;ratioP1;P1;durP2;ratioP2;P2;SDS_P1;SDS_P2;PMS_P1;PMS_P2;Temp;Humidity;BMP_temperature;BMP_pressure;BME280_temperature;BME280_humidity;BME280_pressure;Samples;Min_cycle;Max_cycle;Signal;HPM_P1;HPM_P2
2021/12/13 00:00:34;;;;;;;0.30;0.30;;;;;;;-148.56;100.00;61375.16;5026382;28;20061;-32
2021/12/13 00:04:18;;;;;;;0.20;0.20;;;;;;;-148.56;100.00;61375.16;5026828;28;20026;-25
2021/12/13 00:07:55;;;;;;;0.30;0.20;;;;;;;-148.56;100.00;61375.16;5002109;28;20041;-30
2021/12/13 00:11:22;;;;;;;0.45;0.30;;;;;;;-148.56;100.00;61375.16;5034066;28;20025;-31
2021/12/13 00:14:53;;;;;;;0.20;0.20;;;;;;;-148.56;100.00;61375.16;5028527;28;20124;-31
2021/12/13 00:18:20;;;;;;;0.10;0.10;;;;;;;-148.56;100.00;61375.16;5017605;28;20039;-27
2021/12/13 00:21:50;;;;;;;0.15;0.15;;;;;;;-148.56;100.00;61375.16;5022105;28;20143;-31
2021/12/13 00:25:27;;;;;;;0.47;0.25;;;;;;;-148.56;100.00;61375.16;5005317;28;20210;-29
2021/12/13 00:29:08;;;;;;;0.57;0.30;;;;;;;-148.56;100.00;61375.16;5033534;28;20029;-28
2021/12/13 00:32:41;;;;;;;1.00;0.30;;;;;;;-148.56;100.00;61375.16;5024302;28;20091;-33
2021/12/13 00:36:06;;;;;;;0.20;0.20;;;;;;;-148.56;100.00;61375.16;5030620;28;20108;-28
2021/12/13 00:39:53;;;;;;;0.47;0.35;;;;;;;-148.56;100.00;61375.16;5036131;28;20136;-28
2021/12/13 00:43:19;;;;;;;0.20;0.20;;;;;;;-148.56;100.00;61375.16;5034549;28;20549;-32
2021/12/13 00:47:01;;;;;;;0.25;0.25;;;;;;;-148.56;100.00;61375.16;5034723;28;20225;-30
2021/12/13 00:50:27;;;;;;;0.25;0.25;;;;;;;-148.56;100.00;61375.16;5036015;28;20024;-32
2021/12/13 00:53:51;;;;;;;0.28;0.22;;;;;;;-148.56;100.00;61375.16;5034041;28;20236;-30
2021/12/13 00:57:38;;;;;;;0.28;0.28;;;;;;;-148.56;100.00;61375.16;5033250;28;20064;-27
2021/12/13 01:01:08;;;;;;;0.60;0.30;;;;;;;-148.56;100.00;61375.16;5035683;28;20035;-30
2021/12/13 01:04:58;;;;;;;0.30;0.30;;;;;;;-148.56;100.00;61375.16;5035166;28;20032;-28
2021/12/13 01:08:41;;;;;;;0.20;0.20;;;;;;;-148.56;100.00;61375.16;5037538;28;20021;-31
2021/12/13 01:12:14;;;;;;;0.20;0.20;;;;;;;-148.56;100.00;61375.16;5037386;28;20331;-29
2021/12/13 01:15:43;;;;;;;;;;;;;;;-148.56;100.00;61375.16;5041128;28;20048;-28
2021/12/13 01:19:32;;;;;;;0.20;0.20;;;;;;;-148.56;100.00;61375.16;5039937;28;20459;-30
2021/12/13 01:23:04;;;;;;;0.13;0.13;;;;;;;-148.56;100.00;61375.16;5035544;28;20025;-31
2021/12/13 01:26:37;;;;;;;0.20;0.20;;;;;;;-148.56;100.00;61375.16;5038258;28;20083;-32
2021/12/13 01:30:01;;;;;;;;;;;;;;;-148.56;100.00;61375.16;5036383;28;20082;-26
2021/12/13 01:33:32;;;;;;;0.20;0.20;;;;;;;-148.56;100.00;61375.16;5040658;28;19916;-30
2021/12/13 01:37:17;;;;;;;0.30;0.30;;;;;;;-148.56;100.00;61375.16;5037059;28;20036;-29
2021/12/13 01:40:47;;;;;;;0.28;0.28;;;;;;;-148.56;100.00;61375.16;5039081;28;20053;-30
2021/12/13 01:44:18;;;;;;;0.80;0.38;;;;;;;-148.56;100.00;61375.16;5039960;28;20025;-27
2021/12/13 01:47:43;;;;;;;0.20;0.20;;;;;;;-148.56;100.00;61375.16;5037626;28;20033;-30
2021/12/13 01:51:15;;;;;;;0.20;0.20;;;;;;;-148.56;100.00;61375.16;5036746;28;20017;-27
2021/12/13 01:54:44;;;;;;;0.20;0.20;;;;;;;-148.56;100.00;61375.16;5037585;28;20752;-30
2021/12/13 02:02:20;;;;;;;0.60;0.25;;;;;;;-148.56;100.00;61375.16;5039215;28;20039;-31
2021/12/13 02:05:51;;;;;;;0.30;0.20;;;;;;;-148.56;100.00;61375.16;5028004;28;20069;-29
2021/12/13 02:09:18;;;;;;;0.55;0.32;;;;;;;-148.56;100.00;61375.16;5036909;28;20075;-32
2021/12/13 02:12:44;;;;;;;0.32;0.32;;;;;;;-148.56;100.00;61375.16;5035038;28;20021;-32
2021/12/13 02:19:51;;;;;;;0.10;0.10;;;;;;;-148.56;100.00;61375.16;5039178;28;20044;-30
2021/12/13 02:23:24;;;;;;;0.30;0.30;;;;;;;-148.56;100.00;61375.16;5033334;28;20055;-27
2021/12/13 02:26:50;;;;;;;0.30;0.30;;;;;;;-148.56;100.00;61375.16;5039193;28;20029;-30
2021/12/13 02:30:27;;;;;;;0.30;0.30;;;;;;;-148.56;100.00;61375.16;5028329;28;20633;-30
2021/12/13 02:33:52;;;;;;;0.20;0.20;;;;;;;-148.56;100.00;61375.16;5036532;28;20087;-28
2021/12/13 02:37:17;;;;;;;0.30;0.30;;;;;;;-148.56;100.00;61375.16;5038536;28;20033;-30
2021/12/13 02:40:42;;;;;;;0.35;0.30;;;;;;;-148.56;100.00;61375.16;5039703;28;20067;-31
2021/12/13 02:44:14;;;;;;;0.22;0.22;;;;;;;-148.56;100.00;61375.16;5023395;28;20034;-29
2021/12/13 02:47:40;;;;;;;0.20;0.20;;;;;;;-148.56;100.00;61375.16;5026443;28;20057;-30
2021/12/13 02:51:05;;;;;;;0.30;0.20;;;;;;;-148.56;100.00;61375.16;5036274;28;20044;-29
2021/12/13 02:54:35;;;;;;;0.30;0.30;;;;;;;-148.56;100.00;61375.16;5034784;28;20091;-25
2021/12/13 02:58:05;;;;;;;0.50;0.30;;;;;;;-148.56;100.00;61375.16;5034344;28;20057;-30
2021/12/13 03:01:37;;;;;;;0.20;0.20;;;;;;;-148.56;100.00;61375.16;5033431;28;20029;-28
2021/12/13 03:05:03;;;;;;;0.30;0.30;;;;;;;-148.56;100.00;61375.16;5036833;28;20039;-28
2021/12/13 03:08:31;;;;;;;0.22;0.22;;;;;;;-148.56;100.00;61375.16;5019482;28;20048;-30
2021/12/13 03:11:57;;;;;;;0.20;0.20;;;;;;;-148.56;100.00;61375.16;5027332;28;20048;-30
2021/12/13 03:15:26;;;;;;;0.25;0.25;;;;;;;-148.56;100.00;61375.16;5036674;28;20025;-27
2021/12/13 03:19:18;;;;;;;0.17;0.17;;;;;;;-148.56;100.00;61375.16;5038103;28;20033;-29
2021/12/13 03:23:03;;;;;;;0.10;0.10;;;;;;;-148.56;100.00;61375.16;5021540;28;20251;-27
2021/12/13 03:26:52;;;;;;;0.20;0.20;;;;;;;-148.56;100.00;61375.16;5033646;28;20614;-28
2021/12/13 03:30:30;;;;;;;0.40;0.10;;;;;;;-148.56;100.00;61375.16;5036728;28;20032;-28
2021/12/13 03:34:04;;;;;;;0.13;0.13;;;;;;;-148.56;100.00;61375.16;5024995;28;20060;-30
2021/12/13 03:37:35;;;;;;;0.30;0.30;;;;;;;-148.56;100.00;61375.16;5035556;28;20032;-28
2021/12/13 03:41:03;;;;;;;0.20;0.20;;;;;;;-148.56;100.00;61375.16;5036684;28;20044;-30
2021/12/13 03:44:35;;;;;;;0.30;0.30;;;;;;;-148.56;100.00;61375.16;5039381;28;20033;-29
2021/12/13 03:48:02;;;;;;;0.25;0.22;;;;;;;-148.56;100.00;61375.16;5027746;28;20032;-27
2021/12/13 03:51:29;;;;;;;0.20;0.20;;;;;;;-148.56;100.00;61375.16;5040220;28;20264;-29
2021/12/13 03:54:55;;;;;;;0.13;0.13;;;;;;;-148.56;100.00;61375.16;5028622;28;20021;-29
2021/12/13 03:58:19;;;;;;;0.20;0.20;;;;;;;-148.56;100.00;61375.16;5020301;28;20021;-33
2021/12/13 04:01:47;;;;;;;0.25;0.25;;;;;;;-148.56;100.00;61375.16;5017076;28;20033;-30
2021/12/13 04:05:17;;;;;;;0.20;0.20;;;;;;;-148.56;100.00;61375.16;5034250;28;20028;-30
2021/12/13 04:08:48;;;;;;;0.20;0.20;;;;;;;-148.56;100.00;61375.16;5036734;28;20055;-29
2021/12/13 04:12:14;;;;;;;0.17;0.17;;;;;;;-148.56;100.00;61375.16;5021115;28;20036;-28
2021/12/13 04:16:07;;;;;;;0.47;0.30;;;;;;;-148.56;100.00;61375.16;5035576;28;20094;-29
2021/12/13 04:19:47;;;;;;;0.30;0.30;;;;;;;-148.56;100.00;61375.16;5016468;28;20029;-34
2021/12/13 04:23:13;;;;;;;0.20;0.20;;;;;;;-148.56;100.00;61375.16;5034297;28;20083;-31
2021/12/13 04:26:42;;;;;;;0.20;0.20;;;;;;;-148.56;100.00;61375.16;5035877;28;20044;-34
2021/12/13 04:30:24;;;;;;;0.20;0.20;;;;;;;-148.56;100.00;61375.16;5034368;28;20028;-31
2021/12/13 04:33:50;;;;;;;0.17;0.17;;;;;;;-148.56;100.00;61375.16;5021660;28;20058;-33
2021/12/13 04:37:17;;;;;;;0.30;0.20;;;;;;;-148.56;100.00;61375.16;5038143;28;20380;-30
2021/12/13 04:40:41;;;;;;;0.20;0.20;;;;;;;-148.56;100.00;61375.16;5034192;28;20024;-30
2021/12/13 04:44:08;;;;;;;0.60;0.30;;;;;;;-148.56;100.00;61375.16;5040116;28;20032;-29
2021/12/13 04:47:34;;;;;;;0.22;0.22;;;;;;;-148.56;100.00;61375.16;5039673;28;20033;-30
2021/12/13 04:51:06;;;;;;;0.20;0.20;;;;;;;-148.56;100.00;61375.16;5027298;28;20466;-30
2021/12/13 04:54:31;;;;;;;0.20;0.15;;;;;;;-148.56;100.00;61375.16;5039432;28;20032;-29
2021/12/13 04:57:56;;;;;;;0.17;0.17;;;;;;;-148.56;100.00;61375.16;5015324;28;20044;-28
2021/12/13 05:01:21;;;;;;;0.38;0.30;;;;;;;-148.56;100.00;61375.16;5031899;28;20629;-31
2021/12/13 05:04:54;;;;;;;0.20;0.20;;;;;;;-148.56;100.00;61375.16;5038762;28;20055;-27
2021/12/13 05:08:18;;;;;;;;;;;;;;;-148.56;100.00;61375.16;5031688;28;20043;-28
2021/12/13 05:11:44;;;;;;;0.52;0.50;;;;;;;-148.56;100.00;61375.16;5039541;28;19947;-29
2021/12/13 05:15:09;;;;;;;0.47;0.43;;;;;;;-148.56;100.00;61375.16;5034767;28;20043;-29
2021/12/13 05:18:47;;;;;;;0.70;0.35;;;;;;;-148.56;100.00;61375.16;5026012;28;20102;-31
2021/12/13 05:22:13;;;;;;;0.20;0.20;;;;;;;-148.56;100.00;61375.16;5030207;28;20021;-29
2021/12/13 05:25:46;;;;;;;0.20;0.20;;;;;;;-148.56;100.00;61375.16;5035125;28;20159;-30
2021/12/13 05:29:29;;;;;;;;;;;;;;;-148.56;100.00;61375.16;5036080;28;20040;-29
2021/12/13 05:32:59;;;;;;;0.30;0.30;;;;;;;-148.56;100.00;61375.16;5039834;28;20344;-30
2021/12/13 05:36:24;;;;;;;0.20;0.20;;;;;;;-148.56;100.00;61375.16;5039120;28;20033;-31
2021/12/13 05:39:54;;;;;;;0.20;0.20;;;;;;;-148.56;100.00;61375.16;5016735;28;20081;-30
2021/12/13 05:43:18;;;;;;;0.32;0.30;;;;;;;-148.56;100.00;61375.16;5032163;28;20390;-31
2021/12/13 05:46:44;;;;;;;0.20;0.20;;;;;;;-148.56;100.00;61375.16;5040772;28;20124;-32
2021/12/13 05:50:25;;;;;;;0.57;0.30;;;;;;;-148.56;100.00;61375.16;5036952;28;20037;-30
2021/12/13 05:54:00;;;;;;;0.22;0.22;;;;;;;-148.56;100.00;61375.16;5020416;28;20115;-30
2021/12/13 05:57:26;;;;;;;0.30;0.30;;;;;;;-148.56;100.00;61375.16;5034640;28;20021;-31
2021/12/13 06:00:49;;;;;;;0.20;0.20;;;;;;;-148.56;100.00;61375.16;5026138;28;20079;-31
2021/12/13 06:04:17;;;;;;;0.40;0.40;;;;;;;-148.56;100.00;61375.16;5023213;28;20076;-29
2021/12/13 06:07:55;;;;;;;0.20;0.20;;;;;;;-148.56;100.00;61375.16;5038206;28;20120;-30
2021/12/13 06:11:19;;;;;;;0.20;0.20;;;;;;;-148.56;100.00;61375.16;5037556;28;20025;-34
2021/12/13 06:14:46;;;;;;;0.20;0.20;;;;;;;-148.56;100.00;61375.16;5036328;28;20483;-30
2021/12/13 06:18:16;;;;;;;0.40;0.20;;;;;;;-148.56;100.00;61375.16;5036330;28;20121;-29
2021/12/13 06:21:48;;;;;;;0.30;0.30;;;;;;;-148.56;100.00;61375.16;5023476;28;20047;-30
2021/12/13 06:25:14;;;;;;;0.10;0.10;;;;;;;-148.56;100.00;61375.16;5035189;28;20036;-28
2021/12/13 06:28:41;;;;;;;0.30;0.30;;;;;;;-148.56;100.00;61375.16;5028229;28;20033;-28
2021/12/13 06:32:10;;;;;;;0.20;0.20;;;;;;;-148.56;100.00;61375.16;5036378;28;20040;-28
2021/12/13 06:35:34;;;;;;;0.35;0.32;;;;;;;-148.56;100.00;61375.16;5023838;28;20060;-28
2021/12/13 06:39:20;;;;;;;0.47;0.40;;;;;;;-148.56;100.00;61375.16;5039621;28;20052;-29
2021/12/13 06:42:47;;;;;;;0.50;0.30;;;;;;;-148.56;100.00;61375.16;5024681;28;20055;-35
2021/12/13 06:46:21;;;;;;;0.43;0.40;;;;;;;-148.56;100.00;61375.16;5009141;28;20048;-31
2021/12/13 06:49:53;;;;;;;0.38;0.38;;;;;;;-148.56;100.00;61375.16;5034602;28;20025;-30
2021/12/13 06:53:27;;;;;;;0.55;0.40;;;;;;;-148.56;100.00;61375.16;5013207;28;20400;-29
2021/12/13 06:56:55;;;;;;;0.32;0.32;;;;;;;-148.56;100.00;61375.16;5036390;28;20063;-30
2021/12/13 07:00:19;;;;;;;0.55;0.30;;;;;;;-148.56;100.00;61375.16;5032988;28;20104;-30
2021/12/13 07:04:12;;;;;;;0.20;0.20;;;;;;;-148.56;100.00;61375.16;5033171;28;20029;-28
2021/12/13 07:07:38;;;;;;;0.30;0.30;;;;;;;-148.56;100.00;61375.16;5037698;28;20037;-28
2021/12/13 07:11:05;;;;;;;0.35;0.35;;;;;;;-148.56;100.00;61375.16;5030785;28;20033;-29
2021/12/13 07:14:42;;;;;;;0.20;0.20;;;;;;;-148.56;100.00;61375.16;5034142;28;20028;-27
2021/12/13 07:18:15;;;;;;;0.40;0.40;;;;;;;-148.56;100.00;61375.16;5035937;28;20396;-32
2021/12/13 07:21:43;;;;;;;;;;;;;;;-148.56;100.00;61375.16;5035166;28;20119;-32
2021/12/13 07:25:10;;;;;;;0.30;0.30;;;;;;;-148.56;100.00;61375.16;5035413;28;19927;-28
2021/12/13 07:28:37;;;;;;;0.30;0.20;;;;;;;-148.56;100.00;61375.16;5033412;28;20033;-30
2021/12/13 07:32:11;;;;;;;0.25;0.25;;;;;;;-148.56;100.00;61375.16;5020090;28;20511;-28
2021/12/13 07:36:17;;;;;;;0.30;0.30;;;;;;;-148.56;100.00;61375.16;5035525;28;20494;-28
2021/12/13 07:39:44;;;;;;;0.20;0.13;;;;;;;-148.56;100.00;61375.16;5033643;28;20467;-27
2021/12/13 07:43:09;;;;;;;0.55;0.30;;;;;;;-148.56;100.00;61375.16;5027574;28;20052;-27
2021/12/13 07:48:18;;;;;;;0.20;0.20;;;;;;;22.87;31.44;97705.91;5044188;28;20398;-27
2021/12/13 07:50:46;;;;;;;0.32;0.32;;;;;;;22.86;31.14;97701.59;5043997;28;20029;-28
2021/12/13 07:53:13;;;;;;;0.32;0.30;;;;;;;22.86;31.42;97701.59;5041798;28;20114;-29
2021/12/13 07:55:46;;;;;;;0.20;0.20;;;;;;;22.87;31.42;97700.69;5045935;28;20028;-30
2021/12/13 07:58:30;;;;;;;0.30;0.30;;;;;;;22.88;31.30;97701.56;5045373;28;20679;-30
2021/12/13 08:00:55;;;;;;;0.25;0.25;;;;;;;22.88;31.29;97704.16;5044023;28;20409;-30
2021/12/13 08:03:23;;;;;;;0.50;0.32;;;;;;;22.88;31.23;97707.63;5027583;28;20032;-34
2021/12/13 08:05:50;;;;;;;0.20;0.20;;;;;;;22.90;31.22;97716.28;5042484;28;20040;-27
2021/12/13 08:08:21;;;;;;;0.32;0.32;;;;;;;22.89;31.25;97714.59;5045252;28;20108;-30
2021/12/13 08:10:48;;;;;;;0.37;0.37;;;;;;;22.88;31.33;97717.22;5034476;28;20036;-28
2021/12/13 08:13:17;;;;;;;0.38;0.38;;;;;;;22.90;31.23;97711.06;5043466;28;20304;-31
2021/12/13 08:15:49;;;;;;;0.30;0.30;;;;;;;22.90;31.15;97711.06;5041857;28;20029;-30
2021/12/13 08:18:43;;;;;;;0.50;0.50;;;;;;;22.91;31.34;97715.38;5044287;28;20024;-30
2021/12/13 08:21:20;;;;;;;0.20;0.20;;;;;;;22.92;31.34;97718.88;5044070;28;20041;-30
2021/12/13 08:23:52;;;;;;;0.20;0.20;;;;;;;22.92;31.24;97714.47;5042459;28;20970;-29
2021/12/13 08:26:26;;;;;;;0.80;0.40;;;;;;;22.93;31.26;97710.13;5044949;28;20608;-29
2021/12/13 08:28:52;;;;;;;0.40;0.30;;;;;;;22.92;31.10;97709.25;5041647;28;20061;-29
2021/12/13 08:31:29;;;;;;;0.63;0.30;;;;;;;22.93;31.39;97713.59;5041277;28;20021;-30
2021/12/13 08:34:04;;;;;;;1.95;0.30;;;;;;;22.92;31.48;97714.47;5044039;28;20055;-27
2021/12/13 08:36:38;;;;;;;0.30;0.30;;;;;;;22.92;31.27;97724.09;5044052;28;20013;-28
2021/12/13 08:39:07;;;;;;;0.30;0.20;;;;;;;22.93;31.35;97721.44;5041561;28;20025;-28
2021/12/13 08:41:34;;;;;;;0.45;0.30;;;;;;;22.94;31.21;97732.75;5044263;28;20025;-29
2021/12/13 08:44:12;;;;;;;0.40;0.40;;;;;;;22.93;31.38;97731.91;5042331;28;20032;-28
2021/12/13 08:46:57;;;;;;;0.30;0.30;;;;;;;22.94;31.44;97732.75;5043534;28;20546;-29
2021/12/13 08:49:36;;;;;;;0.30;0.30;;;;;;;22.94;31.38;97725.75;5046036;28;20118;-26
2021/12/13 08:52:14;;;;;;;0.55;0.35;;;;;;;22.93;31.24;97731.91;5042348;28;20103;-26
2021/12/13 08:54:53;;;;;;;0.40;0.40;;;;;;;22.94;31.40;97732.75;5044085;28;20051;-31
2021/12/13 08:57:37;;;;;;;0.30;0.30;;;;;;;22.93;31.23;97728.41;5043467;28;20132;-31
2021/12/13 09:00:13;;;;;;;1.33;1.00;;;;;;;22.94;31.21;97738.84;5028116;28;20025;-29
2021/12/13 09:03:00;;;;;;;0.55;0.40;;;;;;;22.93;31.36;97742.34;5029493;28;20121;-32
2021/12/13 09:05:32;;;;;;;0.40;0.40;;;;;;;22.93;31.17;97737.13;5028525;28;20434;-29
2021/12/13 09:08:04;;;;;;;0.50;0.35;;;;;;;22.94;31.39;97741.44;5029954;28;20497;-29
2021/12/13 09:10:44;;;;;;;0.55;0.40;;;;;;;22.94;31.11;97744.06;5030172;28;20067;-30
2021/12/13 09:13:09;;;;;;;0.40;0.30;;;;;;;22.94;31.22;97746.69;5027444;28;20029;-33
2021/12/13 09:15:35;;;;;;;0.45;0.40;;;;;;;22.94;31.36;97751.91;5028045;28;20033;-26
2021/12/13 09:18:01;;;;;;;0.50;0.40;;;;;;;22.94;31.47;97757.13;5030566;28;20679;-29
2021/12/13 09:20:29;;;;;;;0.40;0.40;;;;;;;22.95;31.25;97756.22;5027812;28;20041;-29
2021/12/13 09:22:57;;;;;;;0.20;0.20;;;;;;;22.95;31.48;97756.22;5029112;28;20033;-32
2021/12/13 09:25:32;;;;;;;0.32;0.32;;;;;;;22.95;31.44;97756.22;5038218;28;20033;-27
2021/12/13 09:28:01;;;;;;;0.40;0.40;;;;;;;22.95;31.26;97758.84;5031923;28;20434;-31
2021/12/13 09:30:51;;;;;;;0.50;0.35;;;;;;;22.96;31.24;97757.94;5028218;28;20033;-29
2021/12/13 09:33:36;;;;;;;0.30;0.30;;;;;;;22.96;31.26;97759.72;5030185;28;20090;-29
2021/12/13 09:36:13;;;;;;;0.68;0.45;;;;;;;22.97;31.46;97756.19;5029904;28;20120;-30
2021/12/13 09:38:51;;;;;;;0.30;0.30;;;;;;;22.96;31.36;97757.94;5028334;28;20033;-29
2021/12/13 09:41:19;;;;;;;0.50;0.50;;;;;;;22.92;31.39;97745.84;5029186;28;20431;-29
2021/12/13 09:44:11;;;;;;;0.30;0.30;;;;;;;22.97;31.25;97750.97;5030667;28;20615;-31
2021/12/13 09:47:12;;;;;;;0.63;0.32;;;;;;;22.98;31.47;97744.81;5030462;28;20033;-30
2021/12/13 09:49:39;;;;;;;0.30;0.30;;;;;;;22.97;31.47;97744.00;5029747;28;20053;-29
2021/12/13 09:52:09;;;;;;;0.40;0.40;;;;;;;22.97;31.59;97744.00;5028625;28;20044;-28
2021/12/13 09:54:53;;;;;;;0.50;0.40;;;;;;;22.97;31.50;97740.50;5029784;28;20028;-30
2021/12/13 09:57:26;;;;;;;0.68;0.68;;;;;;;22.97;31.47;97732.66;5032278;28;20104;-27
2021/12/13 09:59:52;;;;;;;0.40;0.40;;;;;;;22.97;31.48;97730.06;5029651;28;20028;-27
2021/12/13 10:02:29;;;;;;;0.30;0.30;;;;;;;22.97;31.29;97727.44;5029617;28;20380;-29
2021/12/13 10:04:55;;;;;;;0.73;0.47;;;;;;;23.00;31.44;97726.50;5020587;28;20033;-30
2021/12/13 10:07:32;;;;;;;0.57;0.30;;;;;;;22.98;31.56;97718.69;5027910;28;20020;-28
2021/12/13 10:10:12;;;;;;;0.40;0.40;;;;;;;22.98;31.32;97716.06;5026327;28;20440;-29
2021/12/13 10:12:52;;;;;;;0.40;0.40;;;;;;;23.00;31.64;97716.03;5029042;28;20027;-28
2021/12/13 10:15:19;;;;;;;0.60;0.60;;;;;;;22.97;31.57;97712.63;5024781;28;20036;-27
2021/12/13 10:17:47;;;;;;;0.40;0.40;;;;;;;22.99;31.45;97714.34;5031168;28;20039;-29
2021/12/13 10:20:22;;;;;;;0.50;0.50;;;;;;;22.99;31.35;97714.34;5023970;28;20055;-30
2021/12/13 10:22:47;;;;;;;0.20;0.20;;;;;;;23.01;31.30;97722.97;5028540;28;20033;-30
2021/12/13 10:25:28;;;;;;;0.50;0.40;;;;;;;22.98;31.37;97713.47;5027422;28;20025;-28
2021/12/13 10:27:54;;;;;;;0.40;0.40;;;;;;;23.00;31.59;97716.03;5026161;28;20043;-30
2021/12/13 10:30:25;;;;;;;0.28;0.28;;;;;;;23.01;31.60;97717.75;5013017;28;20029;-31
2021/12/13 10:32:53;;;;;;;;;;;;;;;23.02;31.51;97717.72;5026948;28;20040;-30
2021/12/13 10:35:24;;;;;;;0.30;0.30;;;;;;;23.03;31.63;97718.56;5029313;28;20383;-27
2021/12/13 10:37:58;;;;;;;0.40;0.40;;;;;;;23.01;31.35;97713.38;5027119;28;20068;-29
2021/12/13 10:40:26;;;;;;;0.45;0.30;;;;;;;23.02;31.51;97706.38;5026098;28;20521;-26
2021/12/13 10:43:06;;;;;;;0.32;0.32;;;;;;;23.03;31.61;97710.75;5028983;28;20446;-28
2021/12/13 10:45:41;;;;;;;0.30;0.30;;;;;;;23.02;31.52;97709.88;5025178;28;20036;-27
2021/12/13 10:48:08;;;;;;;0.30;0.30;;;;;;;23.03;31.57;97705.50;5026677;28;20441;-29
2021/12/13 10:50:45;;;;;;;0.30;0.30;;;;;;;23.03;31.73;97710.75;5026713;28;20033;-29
2021/12/13 10:53:13;;;;;;;0.30;0.30;;;;;;;23.04;31.62;97707.22;5029480;28;20049;-30
2021/12/13 10:55:44;;;;;;;0.40;0.35;;;;;;;23.03;31.59;97700.28;5027324;28;20064;-28
2021/12/13 10:58:13;;;;;;;0.40;0.40;;;;;;;23.03;31.49;97695.06;5025057;28;20044;-27
2021/12/13 11:00:41;;;;;;;0.40;0.40;;;;;;;23.04;31.38;97697.63;5030208;28;20100;-29
2021/12/13 11:03:09;;;;;;;0.30;0.30;;;;;;;23.04;31.50;97697.63;5029063;28;20036;-28
2021/12/13 11:05:34;;;;;;;0.30;0.30;;;;;;;23.04;31.49;97700.25;5028028;28;20023;-31
2021/12/13 11:08:00;;;;;;;0.65;0.55;;;;;;;23.05;31.78;97698.47;5029349;28;20028;-29
2021/12/13 11:10:34;;;;;;;0.50;0.40;;;;;;;23.06;31.52;97700.19;5022889;28;20127;-29
2021/12/13 11:13:00;;;;;;;0.40;0.40;;;;;;;23.06;31.76;97689.72;5026410;28;20420;-30
2021/12/13 11:15:32;;;;;;;0.30;0.30;;;;;;;23.08;31.47;97688.78;5028257;28;21010;-29
2021/12/13 11:17:58;;;;;;;0.20;0.20;;;;;;;23.07;31.51;97681.84;5027645;28;20037;-29
2021/12/13 11:20:31;;;;;;;0.20;0.20;;;;;;;23.07;31.48;97681.84;5023733;28;20071;-25
2021/12/13 11:22:56;;;;;;;0.20;0.20;;;;;;;23.08;31.49;97680.09;5028636;28;20025;-28
2021/12/13 11:25:29;;;;;;;0.30;0.22;;;;;;;23.08;31.58;97675.69;5027849;28;20025;-27
2021/12/13 11:27:54;;;;;;;0.20;0.20;;;;;;;23.09;31.73;97668.72;5020930;28;20142;-30
2021/12/13 11:30:23;;;;;;;0.35;0.30;;;;;;;23.08;31.77;97670.47;5025823;28;20754;-30
2021/12/13 11:32:57;;;;;;;0.28;0.28;;;;;;;23.09;31.75;97663.50;5023067;28;20037;-30
2021/12/13 11:35:53;;;;;;;0.25;0.25;;;;;;;23.08;31.62;97662.63;5029419;28;20439;-30
2021/12/13 11:38:49;;;;;;;0.93;0.38;;;;;;;23.09;31.61;97659.13;5024806;28;20030;-30
2021/12/13 11:41:43;;;;;;;0.30;0.30;;;;;;;23.09;31.61;97668.72;5029466;28;20086;-29
2021/12/13 11:44:18;;;;;;;0.20;0.20;;;;;;;23.09;31.79;97674.81;5028325;28;20016;-28
2021/12/13 11:47:21;;;;;;;0.30;0.30;;;;;;;23.09;31.73;97671.34;5025578;28;20127;-28
2021/12/13 11:50:07;;;;;;;0.10;0.10;;;;;;;23.08;31.59;97659.19;5028302;28;20409;-29
2021/12/13 11:52:51;;;;;;;0.52;0.30;;;;;;;23.08;31.61;97662.63;5028454;28;20040;-29
2021/12/13 11:55:16;;;;;;;0.30;0.30;;;;;;;23.08;31.90;97662.63;5027519;28;20120;-30
2021/12/13 11:58:19;;;;;;;0.20;0.20;;;;;;;23.09;31.77;97671.34;5028652;28;20140;-27
2021/12/13 12:01:16;;;;;;;0.20;0.20;;;;;;;23.08;31.72;97664.41;5025161;28;20037;-31
2021/12/13 12:04:15;;;;;;;0.25;0.25;;;;;;;23.09;31.68;97660.88;5027803;28;20033;-27
2021/12/13 12:07:09;;;;;;;0.20;0.20;;;;;;;23.08;31.87;97657.41;5031995;28;20064;-27
2021/12/13 12:10:08;;;;;;;0.28;0.28;;;;;;;23.08;31.77;97661.78;5027094;28;20958;-30
2021/12/13 12:12:58;;;;;;;0.38;0.38;;;;;;;23.09;31.86;97658.28;5025006;28;20021;-29
2021/12/13 12:15:25;;;;;;;0.20;0.20;;;;;;;23.10;31.93;97657.38;5026124;28;20051;-29
2021/12/13 12:17:51;;;;;;;0.30;0.30;;;;;;;23.08;31.70;97656.56;5029468;28;20030;-27
2021/12/13 12:20:20;;;;;;;0.20;0.20;;;;;;;23.10;31.82;97659.97;5027673;28;20032;-29
2021/12/13 12:23:13;;;;;;;0.30;0.30;;;;;;;23.10;31.93;97662.59;5025035;28;20033;-27
2021/12/13 12:25:40;;;;;;;0.20;0.20;;;;;;;23.10;31.67;97657.38;5022814;28;20526;-30
2021/12/13 12:28:15;;;;;;;0.15;0.15;;;;;;;23.11;31.78;97653.88;5029492;28;20050;-29
2021/12/13 12:30:45;;;;;;;0.50;0.30;;;;;;;23.11;31.91;97651.25;5027899;28;20037;-27
2021/12/13 12:33:11;;;;;;;0.20;0.20;;;;;;;23.12;31.75;97652.97;5026851;28;20079;-27
2021/12/13 12:35:43;;;;;;;0.20;0.20;;;;;;;23.12;31.72;97652.09;5030146;28;20037;-29
2021/12/13 12:38:32;;;;;;;0.20;0.20;;;;;;;23.12;31.90;97642.50;5030171;28;20059;-28
2021/12/13 12:41:05;;;;;;;0.28;0.28;;;;;;;23.14;31.84;97634.63;5028158;28;20033;-32
2021/12/13 12:43:35;;;;;;;0.25;0.25;;;;;;;23.12;31.85;97628.56;5027284;28;20021;-27
2021/12/13 12:46:06;;;;;;;0.30;0.30;;;;;;;23.12;31.73;97632.03;5010385;28;20028;-27
2021/12/13 12:48:33;;;;;;;0.32;0.20;;;;;;;23.14;31.88;97632.84;5030149;28;20029;-27
2021/12/13 12:51:23;;;;;;;0.20;0.20;;;;;;;23.13;31.86;97633.75;5029514;28;20156;-28
2021/12/13 12:54:04;;;;;;;0.30;0.28;;;;;;;23.14;31.67;97629.41;5030577;28;20592;-27
2021/12/13 12:56:33;;;;;;;0.28;0.28;;;;;;;23.16;31.93;97630.19;5030705;28;20433;-28
2021/12/13 12:59:02;;;;;;;0.30;0.30;;;;;;;23.15;31.90;97620.66;5029398;28;20057;-28
2021/12/13 13:01:36;;;;;;;0.20;0.20;;;;;;;23.16;31.92;97619.72;5030157;28;20025;-29
2021/12/13 13:04:24;;;;;;;0.40;0.40;;;;;;;23.16;31.75;97617.13;5029121;28;20029;-30
2021/12/13 13:07:08;;;;;;;0.30;0.30;;;;;;;23.15;31.72;97621.47;5027369;28;20025;-29
2021/12/13 13:09:38;;;;;;;0.20;0.20;;;;;;;23.15;31.82;97621.47;5028800;28;20037;-26
2021/12/13 13:12:04;;;;;;;0.20;0.20;;;;;;;23.16;31.80;97611.88;5031282;28;20016;-27
2021/12/13 13:14:30;;;;;;;0.28;0.10;;;;;;;23.16;31.70;97614.50;5037988;28;20083;-28
2021/12/13 13:17:06;;;;;;;0.30;0.30;;;;;;;23.17;31.87;97611.84;5028093;28;20017;-31
2021/12/13 13:19:33;;;;;;;0.20;0.20;;;;;;;23.16;31.86;97611.88;5026409;28;20513;-28
2021/12/13 13:22:08;;;;;;;0.30;0.30;;;;;;;23.17;31.96;97619.69;5028569;28;20033;-27
2021/12/13 13:24:44;;;;;;;0.20;0.20;;;;;;;23.16;32.05;97610.16;5030323;28;20034;-27
2021/12/13 13:27:10;;;;;;;0.17;0.17;;;;;;;23.17;31.92;97611.84;5036825;28;20847;-30
2021/12/13 13:29:35;;;;;;;0.20;0.20;;;;;;;23.16;31.99;97604.91;5031387;28;20124;-30
2021/12/13 13:32:01;;;;;;;0.20;0.20;;;;;;;23.17;31.75;97614.47;5038276;28;20025;-26
2021/12/13 13:34:33;;;;;;;0.10;0.10;;;;;;;23.17;31.76;97611.84;5030414;28;20022;-26
2021/12/13 13:37:17;;;;;;;0.10;0.10;;;;;;;23.17;31.87;97619.69;5032181;28;20112;-30
2021/12/13 13:39:45;;;;;;;0.52;0.30;;;;;;;23.17;31.96;97616.22;5030372;28;20018;-28
2021/12/13 13:42:19;;;;;;;0.20;0.20;;;;;;;23.18;31.88;97610.94;5013974;28;20063;-30
2021/12/13 13:44:58;;;;;;;0.10;0.10;;;;;;;23.18;31.83;97610.94;5027580;28;20029;-30
2021/12/13 13:47:31;;;;;;;0.20;0.20;;;;;;;23.17;31.84;97614.47;5028482;28;20434;-30
2021/12/13 13:49:57;;;;;;;0.10;0.10;;;;;;;23.17;32.07;97610.97;5027351;28;20064;-25
2021/12/13 13:52:28;;;;;;;0.28;0.28;;;;;;;23.18;31.74;97608.31;5027613;28;20021;-30
2021/12/13 13:54:58;;;;;;;0.20;0.20;;;;;;;23.17;32.01;97609.22;5028258;28;20025;-28
2021/12/13 13:57:26;;;;;;;0.20;0.15;;;;;;;23.18;31.73;97610.94;5031821;28;20029;-30
2021/12/13 13:59:53;;;;;;;0.08;0.08;;;;;;;23.19;31.94;97611.81;5024873;28;20127;-28
2021/12/13 14:02:24;;;;;;;0.30;0.30;;;;;;;23.18;31.71;97603.09;5013509;28;20130;-30
2021/12/13 14:04:54;;;;;;;0.15;0.10;;;;;;;23.18;32.01;97613.56;5031481;28;20934;-28
2021/12/13 14:07:22;;;;;;;0.10;0.10;;;;;;;23.19;31.72;97614.41;5025265;28;20032;-28
2021/12/13 14:09:51;;;;;;;0.25;0.10;;;;;;;23.20;31.81;97618.75;5025649;28;20044;-30